»·PEaware :: N4A KPSP-KSBP

N4A :: KPSP-KSBP

FLIGHT INFORMATION

Flight Status: Arrived
Operator: Privately registered:
United States
More flights under this callsign
Pilot: Alec D. (17934)
Aircraft: CESSNA 550 CITATION 2/S2/BRAVO
(C550)
More flights by this aircraft type
Origin: KPSP Palm Springs Intl
United States
Destination: KSBP San Luis Co Regl
United States
More flights between these airports :: More routes between these airports
Route: +CATH1 PSP V386 PMD FIM RZS CADAB
File this flight plan on PilotEdge
Remarks:
Altitude:
(Current/Filed)
28,000ft
Speed:
(Current/Filed)
400kts
Departed: 27-Aug-18 06:00 PM
Arrived: 27-Aug-18 07:01 PM
Distance/Time
Traveled:
221nm/1:01
Distance/Time
To Go:
Arrived

Flight Plot

Page will automatically refresh every two minutes.

Flight plan parsing failed; only flown route is shown


Map Options




Map Legend


Flown Route
Filed Route
Departure Airport
Arrival Airport
Navaid (VOR, NDB)
Fix

Horizontal Profiles

Position Reports

Time Latitude Longitude Heading Altitude Ground
Speed
27-Aug-18 17:36 33.823473 -116.496944 54 480ft 0kts
27-Aug-18 17:37 33.823473 -116.496944 54 480ft 0kts
27-Aug-18 17:38 33.823473 -116.496944 54 480ft 0kts
27-Aug-18 17:39 33.823473 -116.496944 54 480ft 0kts
27-Aug-18 17:40 33.823473 -116.496944 54 480ft 0kts
27-Aug-18 17:41 33.823473 -116.496944 54 480ft 0kts
27-Aug-18 17:42 33.823473 -116.496944 54 480ft 0kts
27-Aug-18 17:43 33.823473 -116.496944 54 480ft 0kts
27-Aug-18 17:44 33.823476 -116.496940 54 480ft 0kts
27-Aug-18 17:45 33.823479 -116.496934 54 480ft 0kts
27-Aug-18 17:46 33.823483 -116.496928 54 480ft 0kts
27-Aug-18 17:47 33.823486 -116.496922 54 480ft 0kts
27-Aug-18 17:48 33.823490 -116.496916 54 480ft 0kts
27-Aug-18 17:49 33.823494 -116.496910 54 480ft 0kts
27-Aug-18 17:50 33.823497 -116.496904 54 480ft 0kts
27-Aug-18 17:51 33.823500 -116.496898 54 480ft 0kts
27-Aug-18 17:52 33.823504 -116.496892 54 480ft 0kts
27-Aug-18 17:53 33.823507 -116.496886 54 480ft 0kts
27-Aug-18 17:54 33.823511 -116.496880 54 480ft 0kts
27-Aug-18 17:55 33.823514 -116.496874 54 480ft 0kts
27-Aug-18 17:56 33.823518 -116.496868 54 480ft 0kts
27-Aug-18 17:57 33.822032 -116.496727 143 480ft 15kts
27-Aug-18 17:58 33.819034 -116.495354 235 480ft 14kts
27-Aug-18 17:59 33.818369 -116.496550 237 480ft 0kts
27-Aug-18 18:00 33.818366 -116.496557 237 480ft 0kts
27-Aug-18 18:01 33.819344 -116.498446 324 480ft 44kts
27-Aug-18 18:02 33.842922 -116.518651 322 1896ft 137kts
27-Aug-18 18:03 33.880524 -116.551072 319 4350ft 189kts
27-Aug-18 18:04 33.927975 -116.560361 51 7353ft 219kts
27-Aug-18 18:05 33.907958 -116.496869 127 9941ft 222kts
27-Aug-18 18:06 33.872897 -116.434802 126 12386ft 225kts
27-Aug-18 18:07 33.859444 -116.361774 49 14250ft 246kts
27-Aug-18 18:08 33.918827 -116.360182 333 16300ft 226kts
27-Aug-18 18:09 33.976100 -116.389567 329 18284ft 222kts
27-Aug-18 18:10 34.031358 -116.419506 328 20261ft 212kts
27-Aug-18 18:11 34.085597 -116.449128 328 21789ft 217kts
27-Aug-18 18:12 34.141066 -116.479440 328 23219ft 221kts
27-Aug-18 18:13 34.198455 -116.510865 328 24391ft 231kts
27-Aug-18 18:14 34.258514 -116.543775 328 25492ft 240kts
27-Aug-18 18:15 34.319816 -116.577434 327 26630ft 243kts
27-Aug-18 18:16 34.382068 -116.611674 327 27673ft 246kts
27-Aug-18 18:17 34.447572 -116.647876 328 28086ft 277kts
27-Aug-18 18:18 34.505780 -116.709370 282 28061ft 295kts
27-Aug-18 18:19 34.515816 -116.814971 274 28063ft 336kts
27-Aug-18 18:20 34.527569 -116.931702 274 28048ft 360kts
27-Aug-18 18:21 34.539461 -117.054984 274 28019ft 373kts
27-Aug-18 18:22 34.551424 -117.181011 274 27988ft 379kts
27-Aug-18 18:23 34.563376 -117.308389 273 27957ft 381kts
27-Aug-18 18:24 34.575227 -117.436303 273 27960ft 380kts
27-Aug-18 18:25 34.586904 -117.563805 273 27952ft 381kts
27-Aug-18 18:26 34.598464 -117.691526 273 27936ft 381kts
27-Aug-18 18:27 34.609891 -117.819264 273 27925ft 381kts
27-Aug-18 18:28 34.621222 -117.947391 273 27941ft 381kts
27-Aug-18 18:29 34.626339 -118.075300 256 27963ft 377kts
27-Aug-18 18:30 34.588159 -118.193467 248 27950ft 377kts
27-Aug-18 18:31 34.549008 -118.311450 247 27967ft 377kts
27-Aug-18 18:32 34.509461 -118.429636 247 27984ft 378kts
27-Aug-18 18:33 34.471479 -118.542616 247 26923ft 347kts
27-Aug-18 18:34 34.435226 -118.650058 247 24930ft 345kts
27-Aug-18 18:35 34.398998 -118.757063 247 23985ft 340kts
27-Aug-18 18:36 34.363619 -118.864700 254 23981ft 348kts
27-Aug-18 18:37 34.374740 -118.981438 279 23978ft 354kts
27-Aug-18 18:38 34.394655 -119.098035 279 23974ft 354kts
27-Aug-18 18:39 34.414796 -119.214755 279 23695ft 352kts
27-Aug-18 18:40 34.434265 -119.327786 279 21710ft 335kts
27-Aug-18 18:41 34.452884 -119.436515 279 19714ft 325kts
27-Aug-18 18:42 34.470801 -119.541710 279 17715ft 314kts
27-Aug-18 18:43 34.488082 -119.643716 279 15709ft 303kts
27-Aug-18 18:44 34.504742 -119.742323 280 13715ft 291kts
27-Aug-18 18:45 34.551852 -119.816610 314 11725ft 274kts
27-Aug-18 18:46 34.607134 -119.877249 314 9726ft 264kts
27-Aug-18 18:47 34.660630 -119.935840 315 9015ft 259kts
27-Aug-18 18:48 34.714476 -119.994803 315 9015ft 260kts
27-Aug-18 18:49 34.768240 -120.053759 315 9015ft 261kts
27-Aug-18 18:50 34.822069 -120.112889 315 9028ft 261kts
27-Aug-18 18:51 34.876131 -120.172360 315 8186ft 250kts
27-Aug-18 18:52 34.924845 -120.226035 316 6378ft 227kts
27-Aug-18 18:53 34.970863 -120.276850 316 5013ft 217kts
27-Aug-18 18:54 35.014209 -120.324783 316 4985ft 207kts
27-Aug-18 18:55 35.056715 -120.371860 316 4987ft 205kts
27-Aug-18 18:56 35.097612 -120.417210 316 4983ft 188kts
27-Aug-18 18:57 35.131943 -120.462685 304 4548ft 186kts
27-Aug-18 18:58 35.161569 -120.513254 304 2512ft 177kts
27-Aug-18 18:59 35.188170 -120.558668 305 1712ft 149kts
27-Aug-18 19:00 35.210707 -120.593368 304 1084ft 117kts
27-Aug-18 19:01 35.228253 -120.624943 303 463ft 111kts
27-Aug-18 19:02 35.239285 -120.644383 323 215ft 11kts
27-Aug-18 19:03 35.239866 -120.643671 115 215ft 11kts
27-Aug-18 19:04 35.238371 -120.640966 124 215ft 10kts
27-Aug-18 19:05 35.237888 -120.639042 1 215ft 0kts
27-Aug-18 19:06 35.237888 -120.639042 1 215ft 0kts

Navigation Log

Ident Type
Flight plan parsing failed, navigation log unavailable